Aviation Digital Data Service (ADDS)

Output produced by TAFs form (0744 UTC 28 February 2017)
found at http://aviationweather.gov/adds/tafs/
 
KEGE 280537Z 2806/0106 27008KT 3SM -SN BR BKN021 OVC060 
     TEMPO 2806/2810 1SM -SN BR OVC012 
     FM281000 24009KT 1 1/2SM -SHSN BR OVC035 
     FM281800 25006KT 4SM BR VCSH OVC035 
     FM282300 26011KT P6SM VCSH BKN035 
     FM010000 26012G20KT P6SM BKN050 AMD LTD TO CLD VIS AND WIND TIL 281300